createdAt,value
2022-11-28T00:01:19.881Z,79.94
2022-11-28T00:03:47.026Z,80.10
2022-11-28T00:06:14.387Z,79.94
2022-11-28T00:08:41.892Z,80.25
2022-11-28T00:11:10.979Z,79.65
2022-11-28T00:13:38.672Z,80.22
2022-11-28T00:16:08.185Z,80.13
2022-11-28T00:18:35.899Z,79.93
2022-11-28T00:21:05.659Z,80.15
2022-11-28T00:23:33.956Z,79.52
2022-11-28T00:26:05.309Z,80.26
2022-11-28T00:28:32.502Z,80.18
2022-11-28T00:30:59.968Z,80.39
2022-11-28T00:33:27.181Z,80.47
2022-11-28T00:36:04.529Z,80.79
2022-11-28T00:38:32.035Z,79.52
2022-11-28T00:41:05.839Z,80.29
2022-11-28T00:43:33.303Z,80.97
2022-11-28T00:46:00.593Z,80.16
2022-11-28T00:48:27.729Z,80.71
2022-11-28T00:50:55.721Z,80.59
2022-11-28T00:53:22.870Z,79.99
2022-11-28T00:55:49.910Z,80.39
2022-11-28T00:58:16.897Z,79.69
2022-11-28T01:00:44.037Z,81.02
2022-11-28T01:03:11.162Z,80.16
2022-11-28T01:05:42.504Z,80.78
2022-11-28T01:08:12.029Z,81.16
2022-11-28T01:10:44.832Z,81.71
2022-11-28T01:13:12.289Z,80.69
2022-11-28T01:15:41.634Z,81.89
2022-11-28T01:18:08.864Z,81.19
2022-11-28T01:20:36.120Z,81.35
2022-11-28T01:23:03.158Z,81.76
2022-11-28T01:25:30.869Z,81.91
2022-11-28T01:27:57.880Z,81.89
2022-11-28T01:30:25.874Z,81.32
2022-11-28T01:32:52.865Z,81.61
2022-11-28T01:35:20.119Z,81.85
2022-11-28T01:37:47.099Z,81.94
2022-11-28T01:40:14.751Z,81.97
2022-11-28T01:42:41.924Z,81.14
2022-11-28T01:45:17.900Z,82.44
2022-11-28T01:47:45.254Z,81.39
2022-11-28T01:50:13.377Z,81.40
2022-11-28T01:52:44.148Z,81.19
2022-11-28T01:55:12.288Z,81.95
2022-11-28T01:57:39.606Z,81.04
2022-11-28T02:00:12.467Z,80.29
2022-11-28T02:02:42.039Z,80.76
2022-11-28T02:05:09.473Z,80.51
2022-11-28T02:07:37.564Z,81.36
2022-11-28T02:10:07.394Z,80.97
2022-11-28T02:13:14.564Z,81.40
2022-11-28T02:16:00.313Z,81.04
2022-11-28T02:18:50.614Z,80.80
2022-11-28T02:21:23.771Z,80.90
2022-11-28T02:23:56.354Z,80.94
2022-11-28T02:26:48.080Z,81.58
2022-11-28T02:29:33.156Z,81.74
2022-11-28T02:32:03.459Z,81.95
2022-11-28T02:34:36.390Z,81.75
2022-11-28T02:37:36.233Z,81.79
2022-11-28T02:40:07.849Z,81.76
2022-11-28T02:43:04.289Z,81.78
2022-11-28T02:46:16.128Z,81.51
2022-11-28T02:48:53.469Z,81.62
2022-11-28T02:51:58.699Z,81.34
2022-11-28T02:54:27.633Z,81.58
2022-11-28T02:56:55.814Z,81.30
2022-11-28T02:59:37.944Z,81.64
2022-11-28T03:02:17.410Z,81.43
2022-11-28T03:05:03.116Z,81.96
2022-11-28T03:07:57.455Z,81.67
2022-11-28T03:10:45.805Z,81.73
2022-11-28T03:13:31.516Z,82.17
2022-11-28T03:15:58.525Z,81.88
2022-11-28T03:18:31.033Z,81.45
2022-11-28T03:21:22.604Z,82.12
2022-11-28T03:23:53.390Z,82.36
2022-11-28T03:26:35.524Z,82.84
2022-11-28T03:29:09.447Z,82.51
2022-11-28T03:31:40.285Z,82.36
2022-11-28T03:34:09.961Z,82.12
2022-11-28T03:36:45.443Z,82.13
2022-11-28T03:39:15.329Z,81.87
2022-11-28T03:42:08.269Z,82.02
2022-11-28T03:44:54.423Z,81.73
2022-11-28T03:47:23.430Z,81.84
2022-11-28T03:49:54.746Z,81.71
2022-11-28T03:52:29.384Z,81.23
2022-11-28T03:55:00.257Z,81.65
2022-11-28T03:58:07.917Z,81.82
2022-11-28T04:00:38.839Z,81.56
2022-11-28T04:03:31.635Z,81.93
2022-11-28T04:06:07.598Z,82.01
2022-11-28T04:08:44.932Z,81.99
2022-11-28T04:11:18.257Z,81.90
2022-11-28T04:13:59.108Z,81.86
2022-11-28T04:16:29.165Z,82.01
2022-11-28T04:19:26.599Z,81.82
2022-11-28T04:21:57.682Z,81.89
2022-11-28T04:24:29.690Z,81.94
2022-11-28T04:27:01.322Z,82.01
2022-11-28T04:29:37.656Z,81.92
2022-11-28T04:32:05.913Z,82.09
2022-11-28T04:34:34.839Z,81.95
2022-11-28T04:37:06.825Z,81.80
2022-11-28T04:39:37.164Z,81.64
2022-11-28T04:42:12.453Z,81.79
2022-11-28T04:44:45.756Z,81.39
2022-11-28T04:47:12.810Z,81.27
2022-11-28T04:49:40.075Z,81.15
2022-11-28T04:52:12.142Z,80.81
2022-11-28T04:54:45.597Z,81.00
2022-11-28T04:57:17.894Z,81.09
2022-11-28T04:59:45.619Z,81.03
2022-11-28T05:02:13.714Z,81.25
2022-11-28T05:04:41.120Z,81.06
2022-11-28T05:07:08.965Z,81.09
2022-11-28T05:09:36.253Z,81.15
2022-11-28T05:12:04.174Z,81.02
2022-11-28T05:14:31.154Z,80.94
2022-11-28T05:16:58.086Z,80.19
2022-11-28T05:19:25.028Z,80.64
2022-11-28T05:21:53.824Z,80.80
2022-11-28T05:24:22.449Z,80.69
2022-11-28T05:26:49.840Z,81.08
2022-11-28T05:29:17.254Z,80.78
2022-11-28T05:31:44.398Z,80.90
2022-11-28T05:34:11.400Z,80.92
2022-11-28T05:36:38.387Z,80.88
2022-11-28T05:39:05.479Z,80.85
2022-11-28T05:41:32.639Z,80.52
2022-11-28T05:44:00.558Z,80.94
2022-11-28T05:46:28.686Z,80.85
2022-11-28T05:48:56.583Z,80.91
2022-11-28T05:51:23.906Z,81.08
2022-11-28T05:53:51.222Z,80.59
2022-11-28T05:56:19.870Z,81.08
2022-11-28T05:58:47.058Z,80.70
2022-11-28T06:01:17.609Z,80.92
2022-11-28T06:03:44.872Z,80.80
2022-11-28T06:06:17.439Z,81.29
2022-11-28T06:08:45.645Z,81.33
2022-11-28T06:11:14.869Z,81.34
2022-11-28T06:13:44.678Z,81.14
2022-11-28T06:16:16.532Z,81.25
2022-11-28T06:18:43.555Z,81.34
2022-11-28T06:21:12.431Z,81.43
2022-11-28T06:23:40.041Z,81.31
2022-11-28T06:26:12.480Z,81.32
2022-11-28T06:28:39.801Z,81.47
2022-11-28T06:31:11.557Z,80.90
2022-11-28T06:33:39.189Z,81.02
2022-11-28T06:36:06.846Z,81.12
2022-11-28T06:38:34.136Z,81.14
2022-11-28T06:41:04.733Z,79.99
2022-11-28T06:43:31.859Z,81.25
2022-11-28T06:45:59.050Z,81.35
2022-11-28T06:48:26.508Z,81.29
2022-11-28T06:50:54.129Z,81.55
2022-11-28T06:53:21.206Z,81.82
2022-11-28T06:55:48.086Z,81.30
2022-11-28T06:58:15.124Z,81.22
2022-11-28T07:00:42.204Z,81.02
2022-11-28T07:03:09.201Z,81.32
2022-11-28T07:05:36.166Z,81.52
2022-11-28T07:08:03.318Z,81.15
2022-11-28T07:10:30.374Z,81.18
2022-11-28T07:13:04.899Z,81.35
2022-11-28T07:15:32.472Z,81.14
2022-11-28T07:17:59.501Z,81.09
2022-11-28T07:20:26.485Z,80.44
2022-11-28T07:22:53.402Z,80.81
2022-11-28T07:25:20.452Z,80.55
2022-11-28T07:27:47.412Z,80.70
2022-11-28T07:30:14.573Z,80.81
2022-11-28T07:32:41.657Z,80.49
2022-11-28T07:35:09.276Z,80.31
2022-11-28T07:37:36.671Z,80.46
2022-11-28T07:40:04.574Z,79.95
2022-11-28T07:42:31.559Z,81.46
2022-11-28T07:44:58.618Z,80.58
2022-11-28T07:47:25.573Z,80.69
2022-11-28T07:49:52.934Z,80.41
2022-11-28T07:52:19.910Z,80.24
2022-11-28T07:54:47.281Z,80.21
2022-11-28T07:57:14.368Z,80.15
2022-11-28T07:59:41.549Z,80.49
2022-11-28T08:02:11.157Z,80.33
2022-11-28T08:04:41.344Z,80.07
2022-11-28T08:07:13.967Z,80.26
2022-11-28T08:09:41.131Z,79.89
2022-11-28T08:12:08.296Z,79.80
2022-11-28T08:14:35.269Z,78.98
2022-11-28T08:17:02.287Z,79.69
2022-11-28T08:19:33.760Z,79.93
2022-11-28T08:22:02.131Z,80.04
2022-11-28T08:24:29.382Z,79.79
2022-11-28T08:26:56.795Z,79.47
2022-11-28T08:29:23.753Z,79.60
2022-11-28T08:31:50.695Z,79.16
2022-11-28T08:34:17.676Z,78.97
2022-11-28T08:36:45.060Z,79.54
2022-11-28T08:39:28.016Z,79.86
2022-11-28T08:42:01.155Z,79.30
2022-11-28T08:44:30.346Z,79.35
2022-11-28T08:46:57.548Z,79.53
2022-11-28T08:49:24.527Z,79.62
2022-11-28T08:51:51.501Z,79.50
2022-11-28T08:54:19.105Z,80.15
2022-11-28T08:56:47.916Z,79.72
2022-11-28T08:59:14.874Z,79.77
2022-11-28T09:01:41.869Z,79.30
2022-11-28T09:04:09.231Z,79.14
2022-11-28T09:06:39.406Z,79.33
2022-11-28T09:09:06.435Z,79.06
2022-11-28T09:11:33.484Z,78.45
2022-11-28T09:14:00.718Z,78.85
2022-11-28T09:16:27.779Z,78.75
2022-11-28T09:18:57.767Z,79.04
2022-11-28T09:21:24.700Z,79.52
2022-11-28T09:23:52.205Z,79.31
2022-11-28T09:26:20.897Z,79.12
2022-11-28T09:28:48.258Z,78.65
2022-11-28T09:31:16.829Z,78.68
2022-11-28T09:33:44.308Z,78.50
2022-11-28T09:36:13.980Z,78.82
2022-11-28T09:38:41.157Z,78.63
2022-11-28T09:41:36.080Z,78.71
2022-11-28T09:44:37.046Z,78.40
2022-11-28T09:47:05.321Z,78.01
2022-11-28T09:49:47.440Z,77.52
2022-11-28T09:52:29.547Z,78.28
2022-11-28T09:55:02.661Z,77.89
2022-11-28T09:57:36.778Z,77.89
2022-11-28T10:00:05.133Z,77.88
2022-11-28T10:02:59.189Z,78.22
2022-11-28T10:05:54.215Z,77.90
2022-11-28T10:08:57.304Z,77.88
2022-11-28T10:11:38.936Z,77.77
2022-11-28T10:14:15.146Z,77.57
2022-11-28T10:17:28.149Z,76.88
2022-11-28T10:20:00.908Z,77.15
2022-11-28T10:22:37.142Z,76.94
2022-11-28T10:25:10.785Z,76.86
2022-11-28T10:27:37.951Z,77.52
2022-11-28T10:30:29.442Z,76.96
2022-11-28T10:33:16.961Z,76.57
2022-11-28T10:35:49.607Z,77.11
2022-11-28T10:38:17.547Z,77.15
2022-11-28T10:41:09.582Z,77.30
2022-11-28T10:43:54.718Z,77.78
2022-11-28T10:47:04.789Z,77.69
2022-11-28T10:49:46.749Z,77.27
2022-11-28T10:52:33.050Z,77.53
2022-11-28T10:55:21.817Z,77.71
2022-11-28T10:58:04.194Z,77.45
2022-11-28T11:00:31.684Z,77.38
2022-11-28T11:03:02.618Z,77.21
2022-11-28T11:05:34.585Z,77.30
2022-11-28T11:08:23.503Z,77.34
2022-11-28T11:10:57.443Z,77.37
2022-11-28T11:13:31.085Z,77.03
2022-11-28T11:15:59.980Z,77.26
2022-11-28T11:18:31.054Z,76.97
2022-11-28T11:21:10.104Z,76.42
2022-11-28T11:23:38.636Z,76.64
2022-11-28T11:26:10.750Z,76.46
2022-11-28T11:28:41.736Z,76.51
2022-11-28T11:31:44.481Z,76.77
2022-11-28T11:34:18.990Z,76.79
2022-11-28T11:36:46.677Z,76.86
2022-11-28T11:39:13.571Z,77.12
2022-11-28T11:41:43.768Z,76.53
2022-11-28T11:44:20.896Z,76.44
2022-11-28T11:47:07.628Z,76.65
2022-11-28T11:49:39.874Z,76.57
2022-11-28T11:52:27.557Z,76.27
2022-11-28T11:54:57.542Z,76.29
2022-11-28T11:57:34.007Z,76.49
2022-11-28T12:00:01.438Z,76.45
2022-11-28T12:02:34.529Z,76.15
2022-11-28T12:05:11.647Z,76.43
2022-11-28T12:08:00.648Z,76.16
2022-11-28T12:10:34.688Z,76.22
2022-11-28T12:13:05.185Z,76.25
2022-11-28T12:15:47.594Z,76.39
2022-11-28T12:18:14.567Z,76.23
2022-11-28T12:21:00.876Z,76.07
2022-11-28T12:24:14.328Z,76.51
2022-11-28T12:26:50.506Z,76.60
2022-11-28T12:29:23.603Z,76.85
2022-11-28T12:32:27.576Z,76.61
2022-11-28T12:34:54.517Z,76.63
2022-11-28T12:37:54.770Z,76.32
2022-11-28T12:40:38.758Z,76.29
2022-11-28T12:43:19.334Z,76.40
2022-11-28T12:46:05.011Z,76.68
2022-11-28T12:48:53.771Z,77.32
2022-11-28T12:51:26.631Z,77.55
2022-11-28T12:53:58.265Z,77.17
2022-11-28T12:56:44.578Z,77.58
2022-11-28T12:59:21.685Z,77.42
2022-11-28T13:01:56.487Z,77.29
2022-11-28T13:04:38.669Z,77.54
2022-11-28T13:07:50.460Z,78.40
2022-11-28T13:10:23.220Z,78.58
2022-11-28T13:12:50.102Z,78.82
2022-11-28T13:15:31.784Z,79.29
2022-11-28T13:18:33.998Z,79.28
2022-11-28T13:21:06.876Z,79.34
2022-11-28T13:23:33.890Z,78.74
2022-11-28T13:26:06.393Z,78.50
2022-11-28T13:28:55.358Z,78.71
2022-11-28T13:31:32.062Z,78.90
2022-11-28T13:33:59.347Z,79.03
2022-11-28T13:39:54.364Z,78.97
2022-11-28T13:42:58.994Z,78.75
2022-11-28T13:49:12.451Z,78.87
2022-11-28T13:51:31.960Z,78.83
2022-11-28T13:54:17.703Z,79.27
2022-11-28T13:57:13.684Z,79.45
2022-11-28T13:59:40.668Z,79.22
2022-11-28T14:02:22.056Z,79.28
2022-11-28T14:04:49.766Z,79.48
2022-11-28T14:07:44.363Z,79.55
2022-11-28T14:10:24.685Z,79.92
2022-11-28T14:13:10.199Z,80.09
2022-11-28T14:15:57.619Z,80.00
2022-11-28T14:18:57.779Z,80.33
2022-11-28T14:21:50.160Z,80.24
2022-11-28T14:24:41.876Z,79.98
2022-11-28T14:27:18.205Z,79.99
2022-11-28T14:29:49.146Z,80.20
2022-11-28T14:32:42.698Z,80.18
2022-11-28T14:35:37.995Z,79.86
2022-11-28T14:38:30.501Z,79.68
2022-11-28T14:40:57.944Z,80.02
2022-11-28T14:43:25.026Z,80.54
2022-11-28T14:45:55.439Z,79.08
2022-11-28T14:48:22.530Z,80.25
2022-11-28T14:50:59.091Z,80.41
2022-11-28T14:53:36.825Z,80.44
2022-11-28T14:56:15.977Z,80.23
2022-11-28T14:58:48.710Z,80.10
2022-11-28T15:01:25.801Z,80.33
2022-11-28T15:03:57.777Z,80.65
2022-11-28T15:06:31.519Z,80.64
2022-11-28T15:09:24.213Z,80.74
2022-11-28T15:12:15.230Z,80.77
2022-11-28T15:14:42.947Z,80.13
2022-11-28T15:17:13.109Z,80.94
2022-11-28T15:19:50.016Z,80.78
2022-11-28T15:22:40.132Z,80.88
2022-11-28T15:25:25.947Z,81.14
2022-11-28T15:27:54.455Z,80.81
2022-11-28T15:30:33.521Z,80.78
2022-11-28T15:33:01.054Z,80.66
2022-11-28T15:35:28.599Z,80.57
2022-11-28T15:37:57.674Z,80.60
2022-11-28T15:40:29.896Z,80.73
2022-11-28T15:42:57.089Z,80.63
2022-11-28T15:45:30.870Z,80.58
2022-11-28T15:47:58.160Z,81.26
2022-11-28T15:50:29.838Z,81.13
2022-11-28T15:53:19.043Z,80.64
2022-11-28T15:55:47.144Z,80.54
2022-11-28T15:58:30.970Z,80.41
2022-11-28T16:01:05.088Z,80.14
2022-11-28T16:03:42.205Z,80.42
2022-11-28T16:06:09.406Z,80.33
2022-11-28T16:09:00.490Z,80.53
2022-11-28T16:11:30.990Z,79.92
2022-11-28T16:14:00.159Z,79.92
2022-11-28T16:16:31.311Z,80.24
2022-11-28T16:19:02.029Z,79.92
2022-11-28T16:21:33.499Z,79.41
2022-11-28T16:24:02.015Z,78.60
2022-11-28T16:26:37.552Z,78.83
2022-11-28T16:29:07.829Z,78.76
2022-11-28T16:31:35.320Z,78.95
2022-11-28T16:34:03.192Z,78.74
2022-11-28T16:36:31.358Z,79.04
2022-11-28T16:39:24.539Z,78.79
2022-11-28T16:42:08.148Z,78.86
2022-11-28T16:44:35.095Z,78.71
2022-11-28T16:47:02.629Z,78.36
2022-11-28T16:49:45.879Z,78.78
2022-11-28T16:52:22.209Z,78.83
2022-11-28T16:54:50.168Z,78.97
2022-11-28T16:57:17.649Z,78.97
2022-11-28T16:59:45.206Z,79.08
2022-11-28T17:02:21.770Z,79.33
2022-11-28T17:04:50.619Z,79.11
2022-11-28T17:07:19.821Z,78.80
2022-11-28T17:09:48.291Z,78.59
2022-11-28T17:12:24.242Z,78.89
2022-11-28T17:14:51.516Z,78.76
2022-11-28T17:17:20.084Z,78.54
2022-11-28T17:19:47.414Z,78.71
2022-11-28T17:22:23.800Z,78.91
2022-11-28T17:24:53.998Z,79.00
2022-11-28T17:27:21.354Z,78.17
2022-11-28T17:29:48.443Z,78.27
2022-11-28T17:32:15.726Z,78.68
2022-11-28T17:34:43.540Z,79.42
2022-11-28T17:37:11.126Z,78.82
2022-11-28T17:39:38.579Z,78.36
2022-11-28T17:42:06.338Z,78.83
2022-11-28T17:44:35.229Z,78.41
2022-11-28T17:47:03.145Z,78.44
2022-11-28T17:49:31.353Z,78.38
2022-11-28T17:51:58.385Z,78.69
2022-11-28T17:54:29.301Z,79.40
2022-11-28T17:56:56.646Z,79.04
2022-11-28T17:59:24.859Z,79.33
2022-11-28T18:01:51.818Z,79.88
2022-11-28T18:04:19.771Z,80.09
2022-11-28T18:06:47.828Z,79.93
2022-11-28T18:09:15.336Z,79.85
2022-11-28T18:11:42.824Z,79.58
2022-11-28T18:14:10.883Z,79.89
2022-11-28T18:16:40.096Z,80.66
2022-11-28T18:19:07.740Z,80.72
2022-11-28T18:21:34.805Z,80.67
2022-11-28T18:24:01.972Z,80.38
2022-11-28T18:26:28.945Z,80.86
2022-11-28T18:28:56.322Z,80.46
2022-11-28T18:31:26.329Z,79.99
2022-11-28T18:34:00.206Z,80.66
2022-11-28T18:36:29.462Z,80.63
2022-11-28T18:38:57.693Z,80.40
2022-11-28T18:41:25.273Z,80.54
2022-11-28T18:44:00.097Z,79.95
2022-11-28T18:46:30.791Z,80.22
2022-11-28T18:48:57.672Z,79.70
2022-11-28T18:51:33.168Z,79.39
2022-11-28T18:54:02.568Z,78.87
2022-11-28T18:56:30.243Z,78.99
2022-11-28T18:58:57.885Z,78.60
2022-11-28T19:01:28.794Z,78.84
2022-11-28T19:04:01.176Z,78.75
2022-11-28T19:06:28.617Z,78.43
2022-11-28T19:08:58.487Z,78.12
2022-11-28T19:11:26.167Z,78.03
2022-11-28T19:13:56.612Z,78.39
2022-11-28T19:16:26.154Z,78.23
2022-11-28T19:18:53.550Z,77.77
2022-11-28T19:21:28.546Z,77.75
2022-11-28T19:23:56.651Z,77.79
2022-11-28T19:26:25.990Z,77.44
2022-11-28T19:28:54.104Z,77.11
2022-11-28T19:31:27.440Z,76.89
2022-11-28T19:34:05.554Z,76.51
2022-11-28T19:36:39.627Z,76.62
2022-11-28T19:39:08.052Z,76.48
2022-11-28T19:41:35.268Z,76.00
2022-11-28T19:44:02.226Z,75.17
2022-11-28T19:46:35.118Z,74.73
2022-11-28T19:49:03.340Z,74.93
2022-11-28T19:51:30.353Z,74.85
2022-11-28T19:54:03.170Z,75.21
2022-11-28T19:56:31.730Z,75.33
2022-11-28T19:58:58.885Z,75.33
2022-11-28T20:01:26.298Z,74.78
2022-11-28T20:03:53.319Z,74.96
2022-11-28T20:06:22.550Z,75.31
2022-11-28T20:08:50.430Z,75.08
2022-11-28T20:11:23.120Z,74.99
2022-11-28T20:13:50.699Z,75.10
2022-11-28T20:16:18.317Z,74.87
2022-11-28T20:18:45.998Z,74.83
2022-11-28T20:21:18.394Z,74.72
2022-11-28T20:23:47.598Z,74.91
2022-11-28T20:26:17.713Z,74.38
2022-11-28T20:28:45.937Z,74.39
2022-11-28T20:31:21.028Z,74.27
2022-11-28T20:33:49.365Z,74.64
2022-11-28T20:36:17.930Z,74.82
2022-11-28T20:38:45.684Z,74.86
2022-11-28T20:41:14.267Z,74.50
2022-11-28T20:43:42.005Z,74.62
2022-11-28T20:46:16.390Z,74.98
2022-11-28T20:48:43.883Z,75.73
2022-11-28T20:51:16.165Z,75.42
2022-11-28T20:53:45.408Z,75.52
2022-11-28T20:56:17.855Z,75.07
2022-11-28T20:58:45.441Z,76.44
2022-11-28T21:01:17.403Z,75.90
2022-11-28T21:03:44.685Z,75.35
2022-11-28T21:06:11.931Z,75.01
2022-11-28T21:08:38.980Z,75.03
2022-11-28T21:11:17.881Z,75.67
2022-11-28T21:13:58.201Z,75.16
2022-11-28T21:16:30.190Z,75.29
2022-11-28T21:18:58.724Z,75.48
2022-11-28T21:21:28.591Z,75.45
2022-11-28T21:24:01.527Z,75.39
2022-11-28T21:26:30.599Z,75.58
2022-11-28T21:29:02.148Z,75.53
2022-11-28T21:31:31.776Z,75.58
2022-11-28T21:33:59.818Z,75.74
2022-11-28T21:36:28.830Z,75.92
2022-11-28T21:39:00.590Z,76.30
2022-11-28T21:41:32.066Z,76.40
2022-11-28T21:44:00.132Z,76.52
2022-11-28T21:46:27.484Z,75.72
2022-11-28T21:48:54.680Z,76.54
2022-11-28T21:51:24.476Z,76.76
2022-11-28T21:53:52.009Z,76.58
2022-11-28T21:56:19.565Z,76.35
2022-11-28T21:58:46.497Z,76.41
2022-11-28T22:01:14.392Z,76.16
2022-11-28T22:03:42.109Z,75.94
2022-11-28T22:06:15.083Z,75.90
2022-11-28T22:08:42.055Z,75.47
2022-11-28T22:11:11.482Z,76.15
2022-11-28T22:13:39.142Z,75.87
2022-11-28T22:16:24.403Z,75.98
2022-11-28T22:18:52.803Z,75.77
2022-11-28T22:21:50.524Z,75.61
2022-11-28T22:24:08.233Z,75.28
2022-11-28T22:26:35.438Z,75.84
2022-11-28T22:29:04.336Z,75.84
2022-11-28T22:31:31.699Z,76.10
2022-11-28T22:33:58.814Z,76.18
2022-11-28T22:36:25.829Z,76.27
2022-11-28T22:38:59.501Z,76.17
2022-11-28T22:41:29.742Z,76.50
2022-11-28T22:44:01.443Z,75.88
2022-11-28T22:46:29.027Z,75.96
2022-11-28T22:48:56.198Z,75.84
2022-11-28T22:51:25.177Z,76.08
2022-11-28T22:53:57.016Z,75.81
2022-11-28T22:56:24.244Z,76.05
2022-11-28T22:58:51.208Z,75.84
2022-11-28T23:01:21.449Z,75.99
2022-11-28T23:03:49.793Z,76.62
2022-11-28T23:06:19.559Z,76.64
2022-11-28T23:08:47.410Z,76.80
2022-11-28T23:11:26.629Z,76.72
2022-11-28T23:13:53.617Z,76.56
2022-11-28T23:16:29.534Z,76.69
2022-11-28T23:18:58.584Z,76.38
2022-11-28T23:21:26.605Z,76.72
2022-11-28T23:23:53.557Z,76.73
2022-11-28T23:26:24.154Z,76.88
2022-11-28T23:28:51.725Z,76.90
2022-11-28T23:31:24.924Z,77.68
2022-11-28T23:33:55.698Z,77.29
2022-11-28T23:36:28.959Z,77.23
2022-11-28T23:39:01.896Z,76.72
2022-11-28T23:41:29.934Z,77.66
2022-11-28T23:43:57.373Z,77.35
2022-11-28T23:46:26.164Z,77.02
2022-11-28T23:48:54.186Z,77.58
2022-11-28T23:51:22.606Z,77.20
2022-11-28T23:53:50.407Z,77.12
2022-11-28T23:56:24.194Z,77.56
2022-11-28T23:58:52.065Z,77.41
